Главная страница
METAR-TAF:

METAR-TAF

Аэропорты :

Sussex Airport

Sussex, Нью-Джерси, США

широта: 41-12-01N, долгота: 074-37-23W, высота над уровнем моря: 128 м

Текущие метеонаблюдения

Эта сводка был подготовлена 1 час и 3 минут назад, в 13:53 UTC
Ветер 4 Узел от северо-северо-восточный
Температура -2°C
Влажность 59%
Давление 1034 hPa
Видимость: 16.1 км
ясное небо

METAR: KFWN 151353Z AUTO 03004KT 10SM CLR M02/M09 A3054 RMK AO2 SLP347 T10221089

Время: 09:56 (14:56 UTC)


TAF: отсутствует

Метеонаблюдения и прогнозы для более 4000 аэропортов (сводки METAR и TAF).

Имеющиеся станции представлены на карте желтыми и красными точками.

Чтобы увидеть название станции, наведите на нее мышь.

Затем щелкните, чтобы увидеть метеонаблюдения и метеопрогнозы.

Управление картой: чтобы увеличить масштаб, щелкните зеленые кнопки с черным крестиком; чтобы уменьшить масштаб, щелкните зеленую кнопку с тире; для просмотра соседних карт щелкайте зеленые стрелки.


METAR-TAF: